Time;durP1;ratioP1;P1;durP2;ratioP2;P2;SDS_P1;SDS_P2;PMS_P1;PMS_P2;Temp;Humidity;BMP_temperature;BMP_pressure;BME280_temperature;BME280_humidity;BME280_pressure;Samples;Min_cycle;Max_cycle;Signal;HPM_P1;HPM_P2
2021/07/10 00:01:49;;;;;;;16.23;7.53;;;;;;;12.67;100.00;96701.88;5019312;28;20107;-77
2021/07/10 00:04:14;;;;;;;10.90;8.63;;;;;;;12.62;100.00;96688.38;5026928;28;20025;-77
2021/07/10 00:06:40;;;;;;;10.90;7.93;;;;;;;12.65;100.00;96686.22;5019149;28;20060;-77
2021/07/10 00:09:05;;;;;;;14.17;8.00;;;;;;;12.72;100.00;96689.88;5033080;28;20028;-77
2021/07/10 00:11:32;;;;;;;10.67;7.73;;;;;;;12.80;100.00;96686.41;5011837;28;20029;-76
2021/07/10 00:13:58;;;;;;;10.37;8.03;;;;;;;12.82;100.00;96687.09;5037930;28;20082;-77
2021/07/10 00:16:23;;;;;;;12.70;7.53;;;;;;;12.86;100.00;96691.06;5022408;28;20036;-77
2021/07/10 00:18:49;;;;;;;8.73;6.63;;;;;;;12.80;100.00;96688.25;5040053;28;20387;-77
2021/07/10 00:21:15;;;;;;;12.13;7.10;;;;;;;12.72;100.00;96689.06;5044754;28;20083;-77
2021/07/10 00:23:41;;;;;;;9.57;7.13;;;;;;;12.71;100.00;96682.13;5036162;28;20025;-77
2021/07/10 00:26:06;;;;;;;9.63;7.47;;;;;;;12.61;100.00;96681.41;5030396;28;20034;-76
2021/07/10 00:28:32;;;;;;;11.30;7.77;;;;;;;12.58;100.00;96679.13;5024776;28;20022;-77
2021/07/10 00:30:58;;;;;;;10.90;8.40;;;;;;;12.46;100.00;96673.31;5030667;28;20265;-78
2021/07/10 00:33:24;;;;;;;12.33;7.87;;;;;;;12.44;100.00;96677.91;5016860;28;20032;-78
2021/07/10 00:35:49;;;;;;;9.17;7.17;;;;;;;12.47;100.00;96680.22;5033037;28;20025;-76
2021/07/10 00:38:15;;;;;;;10.53;8.20;;;;;;;12.49;100.00;96683.53;5018435;28;20017;-77
2021/07/10 00:40:41;;;;;;;10.23;7.90;;;;;;;12.46;100.00;96683.84;5035676;28;20120;-77
2021/07/10 00:43:06;;;;;;;11.07;7.53;;;;;;;12.47;100.00;96681.06;5013218;28;20394;-77
2021/07/10 00:45:33;;;;;;;10.13;7.00;;;;;;;12.41;100.00;96670.34;5022620;28;20029;-77
2021/07/10 00:47:59;;;;;;;11.47;7.60;;;;;;;12.38;100.00;96666.19;5029578;28;20018;-76
2021/07/10 00:50:27;;;;;;;24.50;7.90;;;;;;;12.30;100.00;96660.88;5031688;28;20045;-77
2021/07/10 00:52:53;;;;;;;10.60;7.17;;;;;;;12.23;100.00;96659.88;5032677;28;20025;-77
2021/07/10 00:55:22;;;;;;;9.13;7.00;;;;;;;12.20;100.00;96658.38;5014370;28;20044;-76
2021/07/10 00:57:50;;;;;;;10.83;6.90;;;;;;;12.18;100.00;96659.53;5021690;28;20469;-77
2021/07/10 01:00:18;;;;;;;18.13;9.70;;;;;;;12.19;100.00;96650.63;5010310;28;20468;-77
2021/07/10 01:02:46;;;;;;;14.63;9.23;;;;;;;12.03;100.00;96643.47;5012294;28;20196;-77
2021/07/10 01:05:16;;;;;;;13.43;9.50;;;;;;;11.91;100.00;96653.47;5039269;28;20397;-77
2021/07/10 01:07:41;;;;;;;15.17;10.23;;;;;;;11.82;100.00;96648.28;5035025;28;20021;-77
2021/07/10 01:10:08;;;;;;;13.30;9.03;;;;;;;11.73;100.00;96644.78;5038569;28;20177;-76
2021/07/10 01:12:37;;;;;;;10.10;9.00;;;;;;;11.74;100.00;96651.72;5021137;28;20038;-77
2021/07/10 01:15:04;;;;;;;11.10;8.77;;;;;;;11.68;100.00;96647.06;5014117;28;20026;-77
2021/07/10 01:17:30;;;;;;;10.97;9.23;;;;;;;11.65;100.00;96648.19;5039997;28;20029;-77
2021/07/10 01:20:01;;;;;;;11.43;9.20;;;;;;;11.60;100.00;96644.38;5030242;28;20037;-76
2021/07/10 01:22:27;;;;;;;12.50;9.20;;;;;;;11.56;100.00;96646.47;5036483;28;20033;-77
2021/07/10 01:24:53;;;;;;;12.80;9.27;;;;;;;11.53;100.00;96649.44;5014842;28;20018;-78
2021/07/10 01:27:20;;;;;;;13.17;9.37;;;;;;;11.46;100.00;96646.59;5040567;28;20025;-77
2021/07/10 01:29:48;;;;;;;10.67;8.70;;;;;;;11.48;100.00;96636.72;5023420;28;20104;-76
2021/07/10 01:32:18;;;;;;;12.93;9.07;;;;;;;11.45;100.00;96639.66;5024056;28;20159;-76
2021/07/10 01:34:49;;;;;;;12.23;9.10;;;;;;;11.46;100.00;96638.69;5034541;28;20417;-77
2021/07/10 01:37:15;;;;;;;13.73;8.73;;;;;;;11.44;100.00;96630.13;5021648;28;20021;-77
2021/07/10 01:39:42;;;;;;;14.67;9.23;;;;;;;11.43;100.00;96623.19;5028456;28;20126;-76
2021/07/10 01:42:08;;;;;;;13.50;8.63;;;;;;;11.39;100.00;96619.22;5032098;28;20042;-77
2021/07/10 01:44:34;;;;;;;14.50;8.27;;;;;;;11.35;100.00;96615.25;5027426;28;20478;-77
2021/07/10 01:47:00;;;;;;;11.50;7.77;;;;;;;11.34;100.00;96618.88;5040323;28;20040;-77
2021/07/10 01:49:25;;;;;;;10.67;7.87;;;;;;;11.30;100.00;96617.50;5034651;28;20557;-76
2021/07/10 01:51:51;;;;;;;10.27;7.97;;;;;;;11.36;100.00;96619.53;5030444;28;20113;-77
2021/07/10 01:54:17;;;;;;;10.97;8.77;;;;;;;11.40;100.00;96617.41;5038644;28;20060;-77
2021/07/10 01:56:44;;;;;;;10.80;8.13;;;;;;;11.31;100.00;96612.09;5008070;28;20407;-76
2021/07/10 01:59:10;;;;;;;11.57;7.70;;;;;;;11.34;100.00;96605.72;5024014;28;20040;-76
2021/07/10 02:01:36;;;;;;;11.17;7.87;;;;;;;11.33;100.00;96614.56;5019221;28;20067;-77
2021/07/10 02:04:02;;;;;;;11.43;7.90;;;;;;;11.29;100.00;96610.59;5029251;28;20068;-76
2021/07/10 02:06:28;;;;;;;12.77;7.80;;;;;;;11.25;100.00;96610.06;5018552;28;20037;-77
2021/07/10 02:08:55;;;;;;;9.23;6.73;;;;;;;11.27;100.00;96607.31;5030999;28;20030;-76
2021/07/10 02:11:21;;;;;;;11.00;7.27;;;;;;;11.28;100.00;96606.31;5031275;28;20116;-77
2021/07/10 02:13:47;;;;;;;13.67;8.00;;;;;;;11.24;100.00;96610.25;5012759;28;20034;-77
2021/07/10 02:16:14;;;;;;;9.13;6.80;;;;;;;11.23;100.00;96613.84;5040794;28;20029;-77
2021/07/10 02:18:40;;;;;;;11.53;7.80;;;;;;;11.21;100.00;96613.19;5033158;28;20026;-77
2021/07/10 02:21:06;;;;;;;10.30;7.10;;;;;;;11.24;100.00;96612.88;5023873;28;20148;-77
2021/07/10 02:23:33;;;;;;;10.53;7.20;;;;;;;11.25;100.00;96604.00;5035926;28;20104;-77
2021/07/10 02:25:58;;;;;;;10.00;7.27;;;;;;;11.25;100.00;96602.19;5035852;28;20036;-77
2021/07/10 02:28:24;;;;;;;10.93;7.40;;;;;;;11.27;100.00;96602.03;5042342;28;20374;-77
2021/07/10 02:30:50;;;;;;;11.60;8.10;;;;;;;11.23;100.00;96595.41;5042190;28;20057;-77
2021/07/10 02:33:16;;;;;;;10.93;7.83;;;;;;;11.11;100.00;96596.66;5029660;28;20053;-76
2021/07/10 02:35:44;;;;;;;12.83;8.53;;;;;;;11.04;100.00;96594.63;5027703;28;20122;-76
2021/07/10 02:38:12;;;;;;;11.17;8.20;;;;;;;11.02;100.00;96588.69;5036383;28;20108;-77
2021/07/10 02:40:37;;;;;;;12.40;8.43;;;;;;;11.04;100.00;96599.06;5035299;28;20080;-77
2021/07/10 02:43:06;;;;;;;11.07;8.47;;;;;;;11.05;100.00;96590.19;5037324;28;20033;-77
2021/07/10 02:45:33;;;;;;;10.10;7.23;;;;;;;11.07;100.00;96591.69;5033849;28;20442;-77
2021/07/10 02:48:01;;;;;;;9.17;7.13;;;;;;;11.08;100.00;96587.25;5036755;28;20013;-77
2021/07/10 02:50:27;;;;;;;10.30;8.37;;;;;;;11.03;100.00;96584.25;5017661;28;20215;-77
2021/07/10 02:52:54;;;;;;;11.70;8.63;;;;;;;11.00;100.00;96585.41;5034889;28;20624;-78
2021/07/10 02:55:22;;;;;;;12.37;8.80;;;;;;;10.98;100.00;96582.09;5036540;28;20423;-76
2021/07/10 02:57:47;;;;;;;12.20;9.17;;;;;;;10.89;100.00;96582.16;5019931;28;20017;-77
2021/07/10 03:00:19;;;;;;;13.63;9.37;;;;;;;10.82;100.00;96592.47;5045370;28;20613;-77
2021/07/10 03:02:46;;;;;;;14.00;9.47;;;;;;;10.76;100.00;96588.63;5038517;28;20079;-76
2021/07/10 03:05:11;;;;;;;14.20;9.53;;;;;;;10.72;100.00;96581.22;5047734;28;20033;-77
2021/07/10 03:07:42;;;;;;;13.03;9.53;;;;;;;10.71;100.00;96584.81;5041042;28;20021;-77
2021/07/10 03:10:10;;;;;;;11.17;9.47;;;;;;;10.73;100.00;96573.19;5040552;28;20028;-77
2021/07/10 03:12:36;;;;;;;11.93;9.73;;;;;;;10.69;100.00;96571.00;5031407;28;20028;-77
2021/07/10 03:15:04;;;;;;;13.70;10.10;;;;;;;10.66;100.00;96569.47;5040425;28;20037;-76
2021/07/10 03:17:30;;;;;;;12.03;10.13;;;;;;;10.69;100.00;96571.81;5028242;28;20339;-77
2021/07/10 03:19:55;;;;;;;14.53;10.53;;;;;;;10.61;100.00;96569.13;5016200;28;20103;-76
2021/07/10 03:22:21;;;;;;;15.47;11.30;;;;;;;10.56;100.00;96572.22;5032713;28;20052;-77
2021/07/10 03:24:47;;;;;;;13.77;10.80;;;;;;;10.54;100.00;96574.16;5019395;28;20083;-76
2021/07/10 03:27:13;;;;;;;15.43;10.70;;;;;;;10.53;100.00;96567.25;5020378;28;20021;-76
2021/07/10 03:29:40;;;;;;;16.00;10.43;;;;;;;10.57;100.00;96567.78;5034750;28;20090;-77
2021/07/10 03:32:06;;;;;;;14.00;11.77;;;;;;;10.58;100.00;96569.44;5013743;28;20122;-77
2021/07/10 03:34:33;;;;;;;15.30;11.77;;;;;;;10.60;100.00;96570.94;5025468;28;20111;-77
2021/07/10 03:36:58;;;;;;;15.37;11.80;;;;;;;10.65;100.00;96569.66;5012055;28;20036;-76
2021/07/10 03:39:25;;;;;;;14.13;11.00;;;;;;;10.71;100.00;96558.53;5040167;28;20041;-77
2021/07/10 03:41:51;;;;;;;15.27;11.03;;;;;;;10.69;100.00;96565.72;5030323;28;20056;-77
2021/07/10 03:44:17;;;;;;;16.93;10.70;;;;;;;10.68;100.00;96550.94;5048663;28;20090;-77
2021/07/10 03:46:45;;;;;;;17.13;11.33;;;;;;;10.64;100.00;96566.19;5022802;28;20022;-76
2021/07/10 03:49:12;;;;;;;15.33;10.73;;;;;;;10.57;100.00;96560.72;5014392;28;20059;-77
2021/07/10 03:51:38;;;;;;;17.03;11.17;;;;;;;10.59;100.00;96550.84;5023004;28;20021;-77
2021/07/10 03:54:04;;;;;;;16.40;10.73;;;;;;;10.60;100.00;96554.34;5030713;28;20698;-76
2021/07/10 03:56:30;;;;;;;15.70;12.73;;;;;;;10.63;100.00;96540.88;5016183;28;20025;-76
2021/07/10 03:58:56;;;;;;;15.43;12.57;;;;;;;10.62;100.00;96555.00;5032442;28;20030;-77
2021/07/10 04:01:22;;;;;;;17.80;13.47;;;;;;;10.61;100.00;96550.72;5018991;28;20026;-78
2021/07/10 04:03:47;;;;;;;17.40;14.50;;;;;;;10.62;100.00;96547.91;5028952;28;20164;-77
2021/07/10 04:06:13;;;;;;;19.17;15.73;;;;;;;10.60;100.00;96542.00;5034027;28;20026;-77
2021/07/10 04:08:39;;;;;;;19.30;15.20;;;;;;;10.63;100.00;96548.78;5036630;28;20029;-77
2021/07/10 04:11:07;;;;;;;17.40;15.50;;;;;;;10.63;100.00;96543.50;5037513;28;20116;-76
2021/07/10 04:13:33;;;;;;;19.03;15.10;;;;;;;10.69;100.00;96549.94;5031360;28;20156;-77
2021/07/10 04:16:00;;;;;;;23.33;15.70;;;;;;;10.69;100.00;96544.69;5010173;28;20018;-77
2021/07/10 04:18:27;;;;;;;17.57;14.97;;;;;;;10.76;100.00;96546.53;5023160;28;20030;-76
2021/07/10 04:20:53;;;;;;;17.77;14.70;;;;;;;10.77;100.00;96548.22;5021357;28;20072;-76
2021/07/10 04:23:20;;;;;;;16.80;13.57;;;;;;;10.78;100.00;96549.88;5039055;28;20042;-77
2021/07/10 04:25:46;;;;;;;17.73;14.00;;;;;;;10.81;100.00;96549.56;5010183;28;20018;-77
2021/07/10 04:28:12;;;;;;;17.20;13.43;;;;;;;10.85;100.00;96550.91;5038842;28;20025;-76
2021/07/10 04:30:39;;;;;;;17.40;13.00;;;;;;;10.94;100.00;96549.16;5037283;28;20022;-77
2021/07/10 04:33:06;;;;;;;17.83;12.37;;;;;;;10.98;100.00;96547.88;5021000;28;20037;-77
2021/07/10 04:35:32;;;;;;;16.50;12.23;;;;;;;11.07;100.00;96549.59;5029798;28;20039;-76
2021/07/10 04:37:58;;;;;;;17.07;13.07;;;;;;;11.09;100.00;96562.59;5035306;28;20037;-76
2021/07/10 04:40:26;;;;;;;15.10;12.53;;;;;;;11.17;100.00;96560.03;5036852;28;20036;-77
2021/07/10 04:42:52;;;;;;;14.73;11.83;;;;;;;11.30;100.00;96565.69;5030559;28;20108;-76
2021/07/10 04:45:18;;;;;;;16.67;12.63;;;;;;;11.45;100.00;96563.31;5008340;28;20172;-76
2021/07/10 04:47:44;;;;;;;15.23;10.63;;;;;;;11.58;100.00;96557.59;5033234;28;20030;-77
2021/07/10 04:50:11;;;;;;;17.40;15.27;;;;;;;11.67;100.00;96558.44;5016464;28;20618;-77
2021/07/10 04:52:37;;;;;;;14.80;13.20;;;;;;;11.78;100.00;96559.00;5036813;28;20124;-76
2021/07/10 04:55:06;;;;;;;11.87;10.43;;;;;;;11.89;100.00;96563.19;5020995;28;20204;-76
2021/07/10 04:57:32;;;;;;;14.00;9.80;;;;;;;11.92;100.00;96560.25;5034068;28;20110;-77
2021/07/10 04:59:57;;;;;;;13.70;9.93;;;;;;;12.01;100.00;96551.38;5037135;28;20034;-75
2021/07/10 05:02:23;;;;;;;11.80;8.77;;;;;;;12.09;100.00;96550.56;5033147;28;20470;-77
2021/07/10 05:04:49;;;;;;;13.60;9.87;;;;;;;12.08;100.00;96551.56;5033219;28;20029;-77
2021/07/10 05:07:14;;;;;;;13.87;8.67;;;;;;;12.06;100.00;96556.16;5042999;28;20037;-77
2021/07/10 05:09:40;;;;;;;11.23;8.03;;;;;;;12.29;100.00;96558.22;5020589;28;20029;-77
2021/07/10 05:12:06;;;;;;;12.13;8.20;;;;;;;12.36;100.00;96559.22;5024466;28;20045;-77
2021/07/10 05:14:32;;;;;;;11.53;8.93;;;;;;;12.46;100.00;96562.53;5024652;28;20077;-77
2021/07/10 05:16:58;;;;;;;11.77;8.80;;;;;;;12.62;100.00;96559.91;5040648;28;20037;-77
2021/07/10 05:19:23;;;;;;;10.03;8.27;;;;;;;12.62;100.00;96557.25;5042140;28;20030;-77
2021/07/10 05:21:49;;;;;;;42.70;34.23;;;;;;;12.81;100.00;96553.50;5034570;28;20030;-77
2021/07/10 05:24:15;;;;;;;11.27;8.50;;;;;;;12.80;100.00;96549.19;5041288;28;20025;-76
2021/07/10 05:26:41;;;;;;;10.47;8.03;;;;;;;12.84;100.00;96547.84;5036967;28;20034;-77
2021/07/10 05:29:07;;;;;;;11.57;8.63;;;;;;;12.84;100.00;96549.66;5026031;28;20083;-76
2021/07/10 05:31:33;;;;;;;10.07;7.60;;;;;;;13.08;100.00;96546.22;5016452;28;20032;-77
2021/07/10 05:33:58;;;;;;;15.70;10.90;;;;;;;13.37;100.00;96541.22;5018991;28;20029;-77
2021/07/10 05:36:24;;;;;;;10.23;8.20;;;;;;;13.49;100.00;96543.50;5023082;28;20510;-77
2021/07/10 05:38:50;;;;;;;12.67;7.83;;;;;;;13.64;100.00;96547.09;5042563;28;20086;-76
2021/07/10 05:41:16;;;;;;;10.87;7.03;;;;;;;13.97;98.88;96547.78;5031210;28;20040;-77
2021/07/10 05:43:42;;;;;;;8.87;7.27;;;;;;;14.13;95.75;96541.59;5045719;28;20021;-78
2021/07/10 05:46:07;;;;;;;10.77;7.10;;;;;;;14.12;95.74;96547.88;5027233;28;20029;-77
2021/07/10 05:48:33;;;;;;;11.23;6.97;;;;;;;14.24;95.73;96537.72;5015258;28;20017;-76
2021/07/10 05:51:00;;;;;;;12.80;6.80;;;;;;;14.86;94.26;96535.00;5015589;28;20091;-77
2021/07/10 05:53:26;;;;;;;9.80;7.23;;;;;;;15.29;93.20;96537.88;5033908;28;20024;-77
2021/07/10 05:55:51;;;;;;;11.38;6.97;;;;;;;15.54;91.30;96535.81;5039849;28;20036;-76
2021/07/10 05:58:17;;;;;;;8.40;6.13;;;;;;;16.02;89.58;96544.22;5025168;28;20168;-79
2021/07/10 06:00:43;;;;;;;8.98;6.95;;;;;;;16.07;90.41;96535.72;5021233;28;20038;-78
2021/07/10 06:03:09;;;;;;;9.57;7.63;;;;;;;16.19;89.60;96536.84;5040869;28;20032;-77
2021/07/10 06:05:37;;;;;;;8.75;6.80;;;;;;;16.50;88.93;96539.25;5040381;28;20486;-77
2021/07/10 06:08:03;;;;;;;11.02;6.70;;;;;;;16.36;89.09;96540.09;5039215;28;20051;-77
2021/07/10 06:10:29;;;;;;;10.25;6.97;;;;;;;16.59;88.38;96534.63;5020639;28;20029;-77
2021/07/10 06:12:55;;;;;;;12.30;6.32;;;;;;;16.76;87.05;96536.03;5041356;28;20621;-77
2021/07/10 06:15:21;;;;;;;9.45;6.55;;;;;;;16.85;87.63;96532.25;5039741;28;20033;-76
2021/07/10 06:17:46;;;;;;;9.27;6.65;;;;;;;17.64;84.63;96531.19;5036697;28;20044;-77
2021/07/10 06:20:15;;;;;;;9.82;6.45;;;;;;;17.85;81.15;96535.63;5031218;28;20063;-77
2021/07/10 06:22:43;;;;;;;9.85;6.28;;;;;;;17.53;85.38;96526.41;5025088;28;20021;-77
2021/07/10 06:25:10;;;;;;;9.68;6.03;;;;;;;17.96;82.93;96527.06;5027333;28;20144;-77
2021/07/10 06:27:36;;;;;;;9.57;6.35;;;;;;;18.06;83.92;96526.69;5028581;28;20025;-77
2021/07/10 06:30:04;;;;;;;8.95;6.28;;;;;;;17.37;85.21;96525.72;5045102;28;20037;-77
2021/07/10 06:32:31;;;;;;;8.30;5.50;;;;;;;18.20;83.83;96511.59;5027250;28;20670;-77
2021/07/10 06:34:58;;;;;;;9.32;6.60;;;;;;;18.53;81.38;96511.66;5037672;28;20034;-77
2021/07/10 06:37:23;;;;;;;8.02;5.72;;;;;;;18.59;81.84;96506.34;5038453;28;20017;-77
2021/07/10 06:39:49;;;;;;;8.35;6.43;;;;;;;19.18;79.14;96504.78;5014222;28;20056;-77
2021/07/10 06:42:16;;;;;;;7.90;6.57;;;;;;;18.78;79.63;96514.63;5044831;28;20056;-78
2021/07/10 06:44:43;;;;;;;10.25;6.25;;;;;;;19.47;79.16;96508.81;5037376;28;20033;-77
2021/07/10 06:47:08;;;;;;;8.25;5.47;;;;;;;19.41;78.73;96509.63;5039723;28;20025;-77
2021/07/10 06:49:34;;;;;;;9.02;6.43;;;;;;;19.87;75.52;96511.41;5018278;28;20398;-77
2021/07/10 06:51:59;;;;;;;9.38;6.18;;;;;;;20.32;74.65;96516.78;5022194;28;20045;-77
2021/07/10 06:54:27;;;;;;;8.00;5.60;;;;;;;19.80;76.25;96513.28;5031217;28;20486;-77
2021/07/10 06:56:53;;;;;;;9.15;6.40;;;;;;;19.96;74.37;96525.34;5034500;28;20036;-78
2021/07/10 06:59:19;;;;;;;7.72;5.38;;;;;;;20.33;72.77;96517.59;5042835;28;20021;-77
2021/07/10 07:01:46;;;;;;;8.07;5.43;;;;;;;20.49;72.09;96517.09;5032716;28;20149;-78
2021/07/10 07:04:12;;;;;;;8.13;5.35;;;;;;;19.92;75.51;96518.75;5022645;28;20041;-77
2021/07/10 07:06:38;;;;;;;7.85;5.28;;;;;;;20.69;73.62;96512.47;5036873;28;20078;-77
2021/07/10 07:09:04;;;;;;;7.03;5.68;;;;;;;21.02;70.42;96510.56;5038215;28;20052;-77
2021/07/10 07:11:30;;;;;;;9.38;4.95;;;;;;;21.48;68.19;96504.00;5032237;28;20063;-77
2021/07/10 07:13:56;;;;;;;9.80;5.50;;;;;;;21.46;68.96;96500.72;5039733;28;20053;-77
2021/07/10 07:16:22;;;;;;;6.15;4.78;;;;;;;21.87;66.84;96502.78;5047303;28;20033;-77
2021/07/10 07:18:48;;;;;;;7.82;5.28;;;;;;;22.26;64.60;96496.09;5039869;28;20017;-79
2021/07/10 07:21:13;;;;;;;7.85;5.03;;;;;;;21.69;67.11;96506.25;5045083;28;20033;-77
2021/07/10 07:23:39;;;;;;;8.45;5.32;;;;;;;21.20;67.86;96502.59;5023366;28;20044;-77
2021/07/10 07:26:05;;;;;;;7.70;4.85;;;;;;;21.87;64.61;96508.13;5037951;28;20022;-77
2021/07/10 07:28:30;;;;;;;6.70;4.63;;;;;;;22.28;62.52;96503.94;5038058;28;20394;-78
2021/07/10 07:30:56;;;;;;;7.90;5.32;;;;;;;22.56;61.72;96511.38;5036273;28;20022;-77
2021/07/10 07:33:22;;;;;;;8.07;4.88;;;;;;;21.08;65.28;96509.69;5036980;28;20029;-77
2021/07/10 07:35:47;;;;;;;6.30;4.65;;;;;;;21.94;62.10;96505.38;5036074;28;20044;-77
2021/07/10 07:38:13;;;;;;;6.43;4.70;;;;;;;22.71;59.95;96498.38;5038807;28;20036;-77
2021/07/10 07:40:39;;;;;;;7.18;4.70;;;;;;;23.22;59.75;96499.63;5029960;28;20024;-77
2021/07/10 07:43:05;;;;;;;7.70;4.15;;;;;;;24.04;56.02;96495.25;5021474;28;20033;-78
2021/07/10 07:45:31;;;;;;;5.47;3.88;;;;;;;24.56;53.85;96484.47;5042665;28;20031;-77
2021/07/10 07:47:57;;;;;;;9.05;4.82;;;;;;;22.81;59.12;96487.91;5020660;28;20030;-77
2021/07/10 07:50:22;;;;;;;6.90;4.63;;;;;;;23.37;57.92;96490.28;5024443;28;20026;-76
2021/07/10 07:52:49;;;;;;;5.78;4.07;;;;;;;25.43;52.29;96475.94;5036701;28;20038;-77
2021/07/10 07:55:15;;;;;;;5.60;4.57;;;;;;;22.67;56.91;96493.69;5018917;28;20021;-77
2021/07/10 07:57:41;;;;;;;6.93;4.18;;;;;;;23.40;56.39;96487.16;5021853;28;20025;-77
2021/07/10 08:00:10;;;;;;;6.35;4.47;;;;;;;23.14;57.01;96489.25;5035063;28;20034;-78
2021/07/10 08:02:36;;;;;;;6.43;4.50;;;;;;;23.28;57.86;96487.97;5036258;28;20116;-77
2021/07/10 08:05:04;;;;;;;5.47;3.90;;;;;;;25.51;50.32;96472.81;5032589;28;20072;-77
2021/07/10 08:07:30;;;;;;;7.60;3.88;;;;;;;23.83;52.59;96480.59;5022773;28;20022;-77
2021/07/10 08:09:56;;;;;;;6.35;3.78;;;;;;;24.12;52.67;96474.22;5026145;28;20025;-77
2021/07/10 08:12:21;;;;;;;6.78;4.38;;;;;;;22.29;58.59;96474.22;5045480;28;20108;-77
2021/07/10 08:14:47;;;;;;;5.85;4.22;;;;;;;21.59;61.38;96479.19;5015273;28;20030;-77
2021/07/10 08:17:13;;;;;;;5.13;3.80;;;;;;;22.81;57.70;96477.19;5029056;28;20091;-77
2021/07/10 08:19:39;;;;;;;6.13;3.88;;;;;;;24.83;52.90;96469.31;5038131;28;20163;-77
2021/07/10 08:22:04;;;;;;;6.25;3.72;;;;;;;25.43;50.55;96459.78;5025145;28;20044;-77
2021/07/10 08:24:30;;;;;;;5.07;3.67;;;;;;;24.23;50.05;96459.91;5037820;28;20040;-77
2021/07/10 08:26:56;;;;;;;6.88;3.67;;;;;;;24.16;49.81;96467.28;5031509;28;20038;-77
2021/07/10 08:29:21;;;;;;;4.82;3.20;;;;;;;23.42;50.65;96463.59;5045263;28;20041;-77
2021/07/10 08:31:47;;;;;;;6.72;3.08;;;;;;;24.18;49.73;96464.38;5042162;28;20053;-79
2021/07/10 08:34:13;;;;;;;5.45;3.25;;;;;;;24.36;47.29;96458.00;5043982;28;20063;-78
2021/07/10 08:36:39;;;;;;;4.30;3.00;;;;;;;25.53;44.88;96448.34;5050260;28;20025;-78
2021/07/10 08:39:07;;;;;;;5.53;2.88;;;;;;;24.31;47.80;96463.25;5051589;28;20060;-77
2021/07/10 08:41:34;;;;;;;4.13;3.03;;;;;;;23.67;48.24;96463.31;5026075;28;20048;-78
2021/07/10 08:43:59;;;;;;;5.10;2.67;;;;;;;24.20;45.52;96454.19;5054370;28;20138;-77
2021/07/10 08:46:25;;;;;;;4.18;2.60;;;;;;;25.26;44.97;96446.34;5034580;28;20049;-77
2021/07/10 08:48:51;;;;;;;5.03;2.92;;;;;;;23.93;48.02;96460.13;5044061;28;20033;-77
2021/07/10 08:51:17;;;;;;;3.97;2.78;;;;;;;26.04;42.70;96443.59;5024947;28;20029;-78
2021/07/10 08:53:43;;;;;;;4.70;2.92;;;;;;;25.27;43.88;96450.66;5027935;28;20079;-78
2021/07/10 08:56:10;;;;;;;3.50;2.58;;;;;;;24.89;43.23;96462.16;5052096;28;20095;-78
2021/07/10 08:58:37;;;;;;;4.35;2.80;;;;;;;23.32;44.88;96461.50;5031124;28;20033;-78
2021/07/10 09:01:06;;;;;;;4.07;2.58;;;;;;;24.02;43.19;96457.88;5034768;28;20121;-78
2021/07/10 09:03:32;;;;;;;3.35;2.22;;;;;;;25.06;42.75;96446.00;5014845;28;20038;-77
2021/07/10 09:05:58;;;;;;;3.47;2.58;;;;;;;25.79;43.70;96441.41;5044249;28;20099;-78
2021/07/10 09:08:29;;;;;;;5.32;2.88;;;;;;;25.04;44.08;96435.47;5037861;28;20051;-78
2021/07/10 09:10:56;;;;;;;5.68;2.58;;;;;;;25.81;42.98;96433.91;5049484;28;20032;-78
2021/07/10 09:13:41;;;;;;;4.32;2.10;;;;;;;26.33;38.12;96428.00;5046448;28;20190;-78
2021/07/10 09:16:09;;;;;;;4.18;2.33;;;;;;;24.36;43.57;96439.16;5035170;28;20088;-78
2021/07/10 09:18:41;;;;;;;6.40;2.80;;;;;;;25.47;42.70;96427.78;5031396;28;20013;-78
2021/07/10 09:21:07;;;;;;;4.07;2.72;;;;;;;24.97;43.56;96434.84;5039827;28;20076;-77
2021/07/10 09:23:39;;;;;;;3.97;2.13;;;;;;;25.07;42.72;96423.41;5046021;28;20021;-78
2021/07/10 09:26:17;;;;;;;3.70;2.22;;;;;;;25.46;40.82;96429.66;5015705;28;20502;-78
2021/07/10 09:28:43;;;;;;;4.18;2.33;;;;;;;26.39;40.07;96416.22;5026316;28;20160;-78
2021/07/10 09:31:24;;;;;;;3.03;2.08;;;;;;;27.14;40.36;96419.03;5028033;28;20592;-78
2021/07/10 09:34:03;;;;;;;3.88;2.30;;;;;;;25.75;41.42;96422.19;5047969;28;20037;-78
2021/07/10 09:36:29;;;;;;;4.32;2.70;;;;;;;26.18;41.96;96430.53;5027857;28;20449;-78
2021/07/10 09:38:55;;;;;;;4.05;2.10;;;;;;;26.50;41.38;96426.06;5022570;28;20102;-78
2021/07/10 09:41:30;;;;;;;2.90;2.03;;;;;;;25.05;43.83;96426.38;5021605;28;20171;-76
2021/07/10 09:44:12;;;;;;;5.55;2.55;;;;;;;25.07;43.03;96426.09;5022706;28;20458;-78
2021/07/10 09:46:39;;;;;;;6.88;2.60;;;;;;;26.30;41.21;96417.75;5038042;28;20060;-77
2021/07/10 09:49:31;;;;;;;3.88;2.40;;;;;;;27.77;40.20;96417.25;5049199;28;20063;-78
2021/07/10 09:51:58;;;;;;;6.07;2.80;;;;;;;26.99;41.56;96415.09;5015760;28;20052;-78
2021/07/10 09:54:28;;;;;;;3.88;2.55;;;;;;;27.31;40.47;96416.16;5013217;28;20035;-78
2021/07/10 09:57:06;;;;;;;4.43;2.65;;;;;;;26.88;42.18;96408.00;5028134;28;20104;-78
2021/07/10 09:59:39;;;;;;;3.75;2.17;;;;;;;28.65;39.03;96410.97;5030585;28;20144;-78
2021/07/10 10:02:13;;;;;;;4.45;2.53;;;;;;;28.19;39.94;96413.56;5039435;28;20104;-78
2021/07/10 10:04:39;;;;;;;3.55;2.53;;;;;;;26.35;43.14;96407.00;5043009;28;20405;-78
2021/07/10 10:07:18;;;;;;;4.65;2.63;;;;;;;26.96;41.76;96407.53;5045391;28;20021;-78
2021/07/10 10:09:45;;;;;;;4.95;2.58;;;;;;;24.85;45.74;96412.59;5024631;28;20654;-78
2021/07/10 10:12:16;;;;;;;7.18;2.70;;;;;;;27.78;39.94;96396.44;5033245;28;20033;-78
2021/07/10 10:14:48;;;;;;;4.28;2.55;;;;;;;26.01;43.15;96401.78;5032480;28;20053;-78
2021/07/10 10:17:16;;;;;;;3.78;2.75;;;;;;;25.74;43.42;96396.34;5026817;28;20125;-78
2021/07/10 10:19:42;;;;;;;4.03;2.35;;;;;;;25.62;44.13;96396.47;5019955;28;20040;-79
2021/07/10 10:22:10;;;;;;;3.40;2.35;;;;;;;26.07;42.69;96395.41;5043487;28;20536;-78
2021/07/10 10:24:38;;;;;;;2.88;2.00;;;;;;;25.40;44.68;96396.47;5025117;28;20567;-78
2021/07/10 10:27:06;;;;;;;4.20;2.47;;;;;;;26.43;41.41;96387.66;5043999;28;20553;-79
2021/07/10 10:29:33;;;;;;;4.22;2.55;;;;;;;25.32;44.05;96388.84;5023886;28;20040;-78
2021/07/10 10:31:59;;;;;;;4.25;2.33;;;;;;;26.98;39.66;96383.78;5022876;28;20037;-77
2021/07/10 10:34:26;;;;;;;4.43;2.50;;;;;;;27.32;40.55;96378.09;5021934;28;20029;-78
2021/07/10 10:36:54;;;;;;;3.90;2.78;;;;;;;26.70;42.85;96381.44;5048160;28;20111;-78
2021/07/10 10:39:26;;;;;;;4.63;2.60;;;;;;;25.84;42.75;96382.22;5012227;28;20427;-77
2021/07/10 10:41:57;;;;;;;3.65;2.25;;;;;;;25.30;44.93;96382.06;5025098;28;20479;-77
2021/07/10 10:44:25;;;;;;;6.25;2.88;;;;;;;25.51;43.34;96380.44;5023973;28;20033;-78
2021/07/10 10:46:55;;;;;;;3.72;2.55;;;;;;;25.98;42.54;96369.97;5036056;28;20523;-77
2021/07/10 10:49:38;;;;;;;3.83;2.92;;;;;;;26.37;44.09;96367.09;5034126;28;20441;-78
2021/07/10 10:52:39;;;;;;;3.80;2.58;;;;;;;26.41;42.81;96362.03;5022336;28;20219;-78
2021/07/10 10:55:09;;;;;;;4.18;2.78;;;;;;;25.93;43.41;96367.22;5030775;28;20419;-78
2021/07/10 10:57:57;;;;;;;5.00;2.60;;;;;;;27.72;39.07;96360.44;5023081;28;20009;-78
2021/07/10 11:00:39;;;;;;;4.32;2.47;;;;;;;26.05;42.49;96362.47;5027482;28;20045;-78
2021/07/10 11:03:09;;;;;;;3.78;2.58;;;;;;;27.01;40.08;96356.28;5016764;28;20038;-78
2021/07/10 11:05:44;;;;;;;4.95;2.30;;;;;;;26.37;41.76;96342.84;5011026;28;20512;-79
2021/07/10 11:08:21;;;;;;;4.47;2.67;;;;;;;25.89;42.77;96346.41;5017814;28;20021;-79
2021/07/10 11:10:59;;;;;;;4.22;2.50;;;;;;;26.31;40.12;96355.47;5042657;28;20048;-78
2021/07/10 11:13:39;;;;;;;4.20;2.70;;;;;;;26.56;39.70;96344.13;5028711;28;20033;-78
2021/07/10 11:16:09;;;;;;;3.50;2.28;;;;;;;26.60;40.14;96349.00;5035383;28;20048;-78
2021/07/10 11:18:56;;;;;;;3.45;2.17;;;;;;;26.23;39.56;96339.75;5037871;28;20029;-78
2021/07/10 11:24:19;;;;;;;4.18;2.13;;;;;;;26.96;38.52;96337.38;5043741;28;20049;-78
2021/07/10 11:26:53;;;;;;;4.18;2.42;;;;;;;27.58;38.64;96327.69;5035179;28;20030;-78
2021/07/10 11:29:36;;;;;;;3.53;2.25;;;;;;;27.01;39.49;96323.91;5029777;28;20038;-79